WEATHER DATA

YESTERDAY
Time Temp. Dewp. Hum. Wind dir Wind speed Wind gust Bar. 1h Prec. 24h Prec.
00:01 1.7 -2.6 71 234 0.3 0.8 1014.1 0.0000 0.0000
00:10 1.7 -2.6 71 201 0.3 0.8 1013.8 0.0000 0.0000
00:20 1.7 -2.6 71 191 0.3 0.8 1014 0.0000 0.0000
00:30 1.7 -2.6 71 225 0.3 1.4 1013.9 0.0000 0.0000
00:40 1.6 -2.6 72 270 0.3 0.8 1014 0.0000 0.0000
00:49 1.6 -2.6 72 172 0.6 1.7 1013.6 0.0000 0.0000
01:00 1.6 -2.6 72 225 0.3 1.1 1013.8 0.0000 0.0000
01:11 1.6 -2.6 72 192 0.3 1.7 1013.7 0.0000 0.0000
01:21 1.6 -2.6 72 180 0.6 1.4 1013.6 0.0000 0.0000
01:31 1.5 -2.6 72 169 0.3 1.4 1013.8 0.0000 0.0000
01:40 1.4 -2.7 72 171 0.6 1.9 1013.7 0.0000 0.0000
01:51 1.4 -2.6 73 161 0.6 1.4 1013.6 0.0000 0.0000
02:01 1.4 -2.6 73 170 0.3 1.4 1014 0.0000 0.0000
02:11 1.4 -2.6 73 192 0.3 1.1 1013.8 0.0000 0.0000
02:21 1.4 -2.6 73 225 0.3 1.1 1013.9 0.0000 0.0000
02:31 1.4 -2.6 73 171 0.3 1.1 1013.9 0.0000 0.0000
02:41 1.4 -2.6 73 186 0.3 2.2 1013.8 0.0000 0.0000
02:51 1.4 -2.6 73 186 0.3 1.7 1014 0.0000 0.0000
03:02 1.4 -2.7 72 182 0.6 1.1 1014.2 0.0000 0.0000
03:12 1.5 -2.6 72 225 0.3 0.8 1013.9 0.0000 0.0000
03:21 1.5 -2.8 71 216 0.3 0.8 1014 0.0000 0.0000
03:32 1.5 -2.8 71 165 0.3 1.1 1014 0.0000 0.0000
03:42 1.6 -2.6 72 204 0.3 0.8 1013.9 0.0000 0.0000
03:52 1.5 -2.8 71 153 0.3 1.7 1013.9 0.0000 0.0000
04:02 1.5 -3 70 180 0.3 1.1 1013.7 0.0000 0.0000
04:12 1.5 -2.8 71 187 0.3 1.1 1013.9 0.0000 0.0000
04:22 1.4 -3.1 70 201 0.3 0.6 1013.9 0.0000 0.0000
04:29 1.4 -3.1 70 198 0.3 1.1 1014 0.0000 0.0000
04:39 1.4 -3.1 70 198 0.3 0.6 1014.1 0.0000 0.0000
04:48 1.5 -3 70 225 0.3 0.6 1014.5 0.0000 0.0000
04:59 1.4 -3.1 70 239 0.3 0.6 1014.1 0.0000 0.0000
05:09 1.4 -3.1 70 204 0.3 1.7 1013.9 0.0000 0.0000
05:19 1.1 -3.3 70 225 0.3 0.6 1013.9 0.0000 0.0000
05:29 0.8 -3.4 71 0.0 0.6 1013.9 0.0000 0.0000
05:40 0.4 -3.6 72 216 0.3 0.6 1013.9 0.0000 0.0000
05:49 0.1 -3.5 74 0.0 0.6 1014 0.0000 0.0000
05:59 -0.2 -3.6 75 217 0.3 0.6 1013.9 0.0000 0.0000
06:10 -0.4 -3.7 76 0.0 0.6 1013.8 0.0000 0.0000
06:20 -0.6 -3.7 77 0.0 0.6 1013.9 0.0000 0.0000
06:29 -0.8 -3.8 78 225 0.3 0.6 1014 0.0000 0.0000
06:39 -0.9 -3.9 78 225 0.3 0.6 1014 0.0000 0.0000
06:50 -1 -4 78 0.0 0.6 1014.3 0.0000 0.0000
07:00 -1 -4 78 217 0.3 0.6 1014.3 0.0000 0.0000
07:09 -1.1 -3.9 79 225 0.3 0.6 1014.6 0.0000 0.0000
07:20 -1.1 -3.9 79 191 0.3 0.8 1014.5 0.0000 0.0000
07:30 -1.1 -3.8 80 225 0.3 0.8 1014.5 0.0000 0.0000
07:40 -1.2 -3.9 80 270 0.3 1.1 1014.5 0.0000 0.0000
07:50 -1.3 -4 80 217 0.3 1.4 1014.3 0.0000 0.0000
08:00 -1.3 -3.8 81 220 0.3 0.8 1014.6 0.0000 0.0000
08:10 -1.4 -3.9 81 205 0.3 1.7 1014.5 0.0000 0.0000
08:20 -1.3 -3.8 81 167 0.6 2.5 1014.5 0.0000 0.0000
08:31 -1.2 -3.7 81 192 0.6 1.7 1014.6 0.0000 0.0000
08:40 -1.1 -3.8 80 169 0.6 1.9 1014.8 0.0000 0.0000
08:50 -0.9 -3.6 80 183 0.6 2.2 1014.7 0.0000 0.0000
09:00 -0.7 -3.5 79 193 0.6 1.4 1014.9 0.0000 0.0000
09:10 -0.5 -3.5 78 165 0.6 2.5 1014.9 0.0000 0.0000
09:20 -0.2 -3.3 77 168 0.6 1.9 1014.8 0.0000 0.0000
09:33 0.1 -3.4 75 147 0.6 2.2 1014.8 0.0000 0.0000
09:42 0.2 -3.3 75 149 0.8 3.6 1014.8 0.0000 0.0000
09:53 0.4 -3.4 73 150 0.8 2.5 1015.1 0.0000 0.0000
10:03 0.6 -3.3 73 166 0.6 1.9 1014.9 0.0000 0.0000
10:11 0.8 -3.2 72 243 0.6 2.2 1014.8 0.0000 0.0000
10:21 1.1 -3 72 154 0.6 1.7 1014.7 0.0000 0.0000
10:30 1.4 -2.9 71 186 0.6 2.2 1014.6 0.0000 0.0000
10:40 1.6 -2.9 70 149 0.6 1.9 1014.7 0.0000 0.0000
10:51 1.8 -3.1 68 150 0.6 2.5 1014.8 0.0000 0.0000
11:01 2 -3.1 67 176 0.6 1.9 1014.8 0.0000 0.0000
11:10 2.3 -2.8 67 151 1.1 3.6 1014.7 0.0000 0.0000
11:21 2.6 -2.6 67 191 0.6 1.7 1014.7 0.0000 0.0000
11:31 2.9 -2.5 66 165 0.8 2.2 1014.6 0.0000 0.0000
11:41 3.1 -2.5 65 168 0.3 1.9 1014.6 0.0000 0.0000
11:50 3.4 -2.3 65 135 0.6 2.8 1014.6 0.0000 0.0000
11:56 3.5 -2.2 65 157 0.6 2.5 1015 0.0000 0.0000
12:06 3.7 -2.6 62 154 1.1 3.1 1014.9 0.0000 0.0000
12:15 3.8 -2.5 62 145 1.1 3.1 1014.8 0.0000 0.0000
12:26 4 -2.3 62 143 0.6 2.2 1014.9 0.0000 0.0000
12:36 4.2 -2.1 62 147 0.8 2.2 1014.7 0.0000 0.0000
12:46 4.3 -2.1 62 135 0.8 1.9 1014.6 0.0000 0.0000
12:55 4.4 -2 62 135 0.8 2.8 1014.7 0.0000 0.0000
13:06 4.5 -2.1 61 148 0.8 2.8 1014.5 0.0000 0.0000
13:16 4.6 -1.8 62 138 0.8 3.6 1014.5 0.0000 0.0000
13:26 4.8 -1.8 61 161 0.6 2.5 1014.4 0.0000 0.0000
13:36 4.9 -1.9 60 145 0.8 2.5 1014.4 0.0000 0.0000
13:46 5 -1.9 60 152 0.6 4.4 1014.5 0.0000 0.0000
13:56 5.1 -1.6 61 140 0.6 1.9 1014.5 0.0000 0.0000
14:06 5.3 -2 58 35 0.8 3.6 1014.4 0.0000 0.0000
14:23 5.4 -1.7 59 146 1.1 3.3 1014.2 0.0000 0.0000
14:33 5.4 -1.9 58 143 0.8 3.6 1014 0.0000 0.0000
14:42 5.5 -1.6 59 137 1.1 2.5 1014.5 0.0000 0.0000
15:03 5.6 -1.6 59 148 0.8 2.2 1014.2 0.0000 0.0000
15:13 5.7 -1.5 59 145 1.1 2.5 1014.2 0.0000 0.0000
15:23 5.8 -1.4 59 150 0.6 1.4 1014.2 0.0000 0.0000
15:33 5.9 -1.5 58 108 0.6 1.9 1014.2 0.0000 0.0000
15:43 6 -1.2 59 135 0.6 3.1 1014.2 0.0000 0.0000
15:53 5.9 -1.5 58 143 1.1 2.8 1014.2 0.0000 0.0000
16:03 5.8 -1.6 58 159 0.6 1.4 1014.5 0.0000 0.0000
16:14 5.7 -1.7 58 135 0.8 2.2 1014.6 0.0000 0.0000
16:23 5.6 -1.8 58 127 0.8 1.9 1014.6 0.0000 0.0000
16:33 5.5 -1.6 59 135 0.6 1.7 1014.5 0.0000 0.0000
16:44 5.4 -1.7 59 151 0.8 2.5 1014.7 0.0000 0.0000
16:54 5.3 -1.8 59 147 0.6 1.7 1014.8 0.0000 0.0000
17:04 5.2 -1.7 60 165 0.6 1.7 1015 0.0000 0.0000
17:13 5.2 -1.9 59 146 0.6 2.8 1014.9 0.0000 0.0000
17:24 5.2 -1.9 59 150 0.6 1.9 1014.9 0.0000 0.0000
17:34 5.1 -1.8 60 149 0.6 1.7 1015.5 0.0000 0.0000
17:44 5 -1.9 60 149 0.6 1.9 1015.2 0.0000 0.0000
18:01 4.7 -1.9 61 161 0.6 1.9 1015.4 0.0000 0.0000
18:11 4.5 -2.1 61 139 0.6 1.7 1015.4 0.0000 0.0000
18:21 4.4 -2.2 61 125 0.6 2.2 1015.6 0.0000 0.0000
18:31 4.2 -2.1 62 165 0.6 1.4 1016 0.0000 0.0000
18:41 4.2 -2.1 62 160 0.6 1.9 1015.9 0.0000 0.0000
18:52 4.1 -2.2 62 170 0.3 1.7 1015.9 0.0000 0.0000
18:59 4.1 -2 63 191 0.3 0.8 1016.2 0.0000 0.0000
19:08 4.2 -2 63 172 0.6 1.4 1016.2 0.0000 0.0000
19:22 4.2 -2 63 164 0.3 1.4 1016.6 0.0000 0.0000
19:33 4.1 -2 63 194 0.3 0.6 1016.2 0.0000 0.0000
19:43 3.9 -2.2 63 236 0.3 0.8 1016.3 0.0000 0.0000
19:52 3.6 -2.3 64 216 0.3 1.1 1016.3 0.0000 0.0000
20:13 3 -2.4 66 0.0 0.6 1016.4 0.0000 0.0000
20:22 2.7 -2.5 67 198 0.3 0.6 1016.1 0.0000 0.0000
20:32 2.3 -2.6 68 180 0.3 1.4 1016 0.0000 0.0000
20:42 2.1 -2.6 69 225 0.3 0.6 1016.3 0.0000 0.0000
20:52 1.8 -2.9 69 180 0.3 0.6 1016.4 0.0000 0.0000
21:02 1.6 -2.9 70 195 0.3 0.6 1016.2 0.0000 0.0000
21:13 1.4 -2.9 71 180 0.3 0.8 1016.1 0.0000 0.0000
21:22 1.2 -2.9 72 225 0.3 0.6 1016 0.0000 0.0000
21:32 1 -3.1 72 270 0.3 0.8 1015.9 0.0000 0.0000
21:43 0.8 -3.1 73 210 0.3 1.1 1016.1 0.0000 0.0000
21:53 0.6 -3.3 73 225 0.3 0.8 1016 0.0000 0.0000
22:02 0.4 -3.3 74 209 0.3 0.8 1016.2 0.0000 0.0000
22:12 0.3 -3.2 75 240 0.3 0.8 1016.3 0.0000 0.0000
22:23 0.2 -3.3 75 206 0.3 0.8 1016 0.0000 0.0000
22:33 0.2 -3.3 75 206 0.3 1.4 1016.1 0.0000 0.0000
22:42 0.1 -3.4 75 239 0.3 0.8 1016.3 0.0000 0.0000
22:53 0.1 -3.2 76 45 0.3 1.4 1016.6 0.0000 0.0000
23:13 0.1 -3.2 76 204 0.3 1.1 1016.2 0.0000 0.0000
23:22 0 -3.3 76 240 0.3 1.7 1016.2 0.0000 0.0000
23:33 0 -3.3 76 203 0.3 2.8 1016.6 0.0000 0.0000
23:43 0 -3.3 76 270 0.3 1.4 1016.3 0.0000 0.0000
23:53 -0.1 -3.4 76 167 0.3 1.9 1016.5 0.0000

DAY STATISTICS

2018-02-24
TEMPERATURE
AVERAGE
2.1
HIGH
6.0
15:43
LOW
-1.4
08:10
PRESSURE
AVERAGE
1014.8
HIGH
1016.6
19:22
LOW
1013.6
00:49
DEWPOINT
AVERAGE
-2.7
HIGH
-1.2
15:43
LOW
-4.0
06:50
HUMIDITY
AVERAGE
69
HIGH
81
08:00
LOW
58
14:06
WIND SPEED
AVERAGE
0.5
HIGH
1.1
11:10
WIND GUST
AVERAGE
1.6
HIGH
4.4
13:46
WIND DIRECTION
PREVAILING
S
39.3%
N
0.0
NE
1.4
E
0.7
SE
28.6
S
39.3
SW
22.9
W
2.9
NW
0.0
PRECIPITATION
RAIN HOUR
0.0
RAIN DAY
0.0
TEMPERATURE (°C)
LOW
-1.4
HIGH
6.0
AVERAGE
2.1
PRESSURE (hpa)
LOW
1013.6
HIGH
1016.6
AVERAGE
1014.8
DEVICE